sensor_id;sensor_type;location;lat;lon;timestamp;temperature;humidity
439;DHT22;206;48.782;9.252;2024-01-11T00:01:58;-1.60;42.00
439;DHT22;206;48.782;9.252;2024-01-11T00:04:23;-1.70;41.70
439;DHT22;206;48.782;9.252;2024-01-11T00:06:50;-1.70;41.70
439;DHT22;206;48.782;9.252;2024-01-11T00:09:15;-1.80;41.90
439;DHT22;206;48.782;9.252;2024-01-11T00:11:41;-1.80;42.80
439;DHT22;206;48.782;9.252;2024-01-11T00:14:07;-1.70;42.90
439;DHT22;206;48.782;9.252;2024-01-11T00:16:32;-1.70;42.40
439;DHT22;206;48.782;9.252;2024-01-11T00:18:58;-1.80;42.20
439;DHT22;206;48.782;9.252;2024-01-11T00:21:24;-1.80;42.00
439;DHT22;206;48.782;9.252;2024-01-11T00:23:50;-1.80;41.90
439;DHT22;206;48.782;9.252;2024-01-11T00:26:15;-1.80;41.90
439;DHT22;206;48.782;9.252;2024-01-11T00:28:41;-1.80;42.70
439;DHT22;206;48.782;9.252;2024-01-11T00:31:06;-1.80;43.30
439;DHT22;206;48.782;9.252;2024-01-11T00:33:32;-1.80;44.00
439;DHT22;206;48.782;9.252;2024-01-11T00:35:58;-1.80;44.50
439;DHT22;206;48.782;9.252;2024-01-11T00:38:24;-1.80;43.70
439;DHT22;206;48.782;9.252;2024-01-11T00:40:49;-1.90;43.20
439;DHT22;206;48.782;9.252;2024-01-11T00:43:15;-1.90;43.10
439;DHT22;206;48.782;9.252;2024-01-11T00:45:40;-1.90;43.30
439;DHT22;206;48.782;9.252;2024-01-11T00:48:06;-1.90;43.60
439;DHT22;206;48.782;9.252;2024-01-11T00:50:32;-1.90;43.40
439;DHT22;206;48.782;9.252;2024-01-11T00:52:57;-1.90;43.70
439;DHT22;206;48.782;9.252;2024-01-11T00:55:23;-1.90;44.30
439;DHT22;206;48.782;9.252;2024-01-11T00:57:49;-2.00;44.50
439;DHT22;206;48.782;9.252;2024-01-11T01:00:16;-2.10;44.80
439;DHT22;206;48.782;9.252;2024-01-11T01:02:42;-2.00;45.50
439;DHT22;206;48.782;9.252;2024-01-11T01:05:08;-1.90;46.00
439;DHT22;206;48.782;9.252;2024-01-11T01:07:34;-1.90;45.60
439;DHT22;206;48.782;9.252;2024-01-11T01:09:59;-1.80;45.10
439;DHT22;206;48.782;9.252;2024-01-11T01:12:25;-1.90;43.60
439;DHT22;206;48.782;9.252;2024-01-11T01:14:51;-1.90;42.80
439;DHT22;206;48.782;9.252;2024-01-11T01:17:17;-1.90;43.00
439;DHT22;206;48.782;9.252;2024-01-11T01:19:43;-1.90;43.40
439;DHT22;206;48.782;9.252;2024-01-11T01:22:09;-1.90;44.20
439;DHT22;206;48.782;9.252;2024-01-11T01:24:35;-1.90;44.60
439;DHT22;206;48.782;9.252;2024-01-11T01:27:00;-1.90;44.20
439;DHT22;206;48.782;9.252;2024-01-11T01:29:26;-2.00;44.20
439;DHT22;206;48.782;9.252;2024-01-11T01:31:52;-2.10;44.40
439;DHT22;206;48.782;9.252;2024-01-11T01:34:18;-2.10;44.80
439;DHT22;206;48.782;9.252;2024-01-11T01:36:43;-2.10;45.40
439;DHT22;206;48.782;9.252;2024-01-11T01:39:09;-2.00;45.20
439;DHT22;206;48.782;9.252;2024-01-11T01:41:35;-2.00;45.00
439;DHT22;206;48.782;9.252;2024-01-11T01:44:00;-2.00;44.50
439;DHT22;206;48.782;9.252;2024-01-11T01:46:27;-2.00;44.50
439;DHT22;206;48.782;9.252;2024-01-11T01:48:54;-2.00;44.50
439;DHT22;206;48.782;9.252;2024-01-11T01:51:21;-2.10;44.40
439;DHT22;206;48.782;9.252;2024-01-11T01:53:47;-2.10;44.40
439;DHT22;206;48.782;9.252;2024-01-11T01:56:13;-2.10;44.60
439;DHT22;206;48.782;9.252;2024-01-11T01:58:40;-2.10;44.70
439;DHT22;206;48.782;9.252;2024-01-11T02:01:06;-2.10;44.40
439;DHT22;206;48.782;9.252;2024-01-11T02:03:33;-2.10;44.10
439;DHT22;206;48.782;9.252;2024-01-11T02:06:01;-2.10;44.40
439;DHT22;206;48.782;9.252;2024-01-11T02:08:28;-2.10;44.40
439;DHT22;206;48.782;9.252;2024-01-11T02:10:54;-2.00;45.30
439;DHT22;206;48.782;9.252;2024-01-11T02:13:20;-2.00;45.40
439;DHT22;206;48.782;9.252;2024-01-11T02:15:46;-1.90;45.10
439;DHT22;206;48.782;9.252;2024-01-11T02:18:12;-1.90;44.80
439;DHT22;206;48.782;9.252;2024-01-11T02:20:37;-1.90;44.70
439;DHT22;206;48.782;9.252;2024-01-11T02:23:08;-1.80;44.60
439;DHT22;206;48.782;9.252;2024-01-11T02:25:37;-1.80;44.60
439;DHT22;206;48.782;9.252;2024-01-11T02:28:03;-1.80;44.60
439;DHT22;206;48.782;9.252;2024-01-11T02:30:29;-1.80;44.60
439;DHT22;206;48.782;9.252;2024-01-11T02:32:54;-1.90;44.40
439;DHT22;206;48.782;9.252;2024-01-11T02:35:21;-1.90;44.10
439;DHT22;206;48.782;9.252;2024-01-11T02:37:47;-1.90;44.50
439;DHT22;206;48.782;9.252;2024-01-11T02:40:13;-2.00;44.50
439;DHT22;206;48.782;9.252;2024-01-11T02:42:40;-2.10;44.80
439;DHT22;206;48.782;9.252;2024-01-11T02:45:06;-2.10;45.30
439;DHT22;206;48.782;9.252;2024-01-11T02:47:32;-2.10;45.70
439;DHT22;206;48.782;9.252;2024-01-11T02:49:57;-2.10;46.00
439;DHT22;206;48.782;9.252;2024-01-11T02:52:23;-2.20;46.00
439;DHT22;206;48.782;9.252;2024-01-11T02:54:49;-2.20;46.70
439;DHT22;206;48.782;9.252;2024-01-11T02:57:14;-2.20;46.00
439;DHT22;206;48.782;9.252;2024-01-11T02:59:41;-2.20;45.10
439;DHT22;206;48.782;9.252;2024-01-11T03:02:07;-2.20;45.10
439;DHT22;206;48.782;9.252;2024-01-11T03:04:32;-2.20;45.20
439;DHT22;206;48.782;9.252;2024-01-11T03:06:58;-2.20;45.30
439;DHT22;206;48.782;9.252;2024-01-11T03:09:24;-2.20;45.10
439;DHT22;206;48.782;9.252;2024-01-11T03:11:49;-2.30;45.30
439;DHT22;206;48.782;9.252;2024-01-11T03:14:15;-2.40;45.20
439;DHT22;206;48.782;9.252;2024-01-11T03:16:40;-2.40;46.00
439;DHT22;206;48.782;9.252;2024-01-11T03:19:07;-2.40;46.50
439;DHT22;206;48.782;9.252;2024-01-11T03:21:32;-2.40;46.60
439;DHT22;206;48.782;9.252;2024-01-11T03:23:58;-2.40;47.00
439;DHT22;206;48.782;9.252;2024-01-11T03:26:25;-2.50;47.30
439;DHT22;206;48.782;9.252;2024-01-11T03:28:50;-2.50;47.60
439;DHT22;206;48.782;9.252;2024-01-11T03:31:16;-2.40;47.30
439;DHT22;206;48.782;9.252;2024-01-11T03:33:42;-2.40;47.10
439;DHT22;206;48.782;9.252;2024-01-11T03:36:11;-2.50;47.00
439;DHT22;206;48.782;9.252;2024-01-11T03:38:37;-2.50;47.30
439;DHT22;206;48.782;9.252;2024-01-11T03:41:10;-2.50;47.30
439;DHT22;206;48.782;9.252;2024-01-11T03:43:36;-2.50;47.30
439;DHT22;206;48.782;9.252;2024-01-11T03:46:02;-2.50;47.00
439;DHT22;206;48.782;9.252;2024-01-11T03:48:28;-2.50;47.10
439;DHT22;206;48.782;9.252;2024-01-11T03:50:53;-2.50;47.50
439;DHT22;206;48.782;9.252;2024-01-11T03:53:19;-2.50;47.90
439;DHT22;206;48.782;9.252;2024-01-11T03:55:45;-2.50;48.00
439;DHT22;206;48.782;9.252;2024-01-11T03:58:11;-2.50;47.50
439;DHT22;206;48.782;9.252;2024-01-11T04:00:37;-2.50;47.40
439;DHT22;206;48.782;9.252;2024-01-11T04:03:02;-2.50;46.90
439;DHT22;206;48.782;9.252;2024-01-11T04:05:28;-2.50;46.00
439;DHT22;206;48.782;9.252;2024-01-11T04:07:53;-2.50;46.30
439;DHT22;206;48.782;9.252;2024-01-11T04:10:19;-2.60;45.60
439;DHT22;206;48.782;9.252;2024-01-11T04:12:45;-2.60;46.00
439;DHT22;206;48.782;9.252;2024-01-11T04:15:13;-2.60;46.10
439;DHT22;206;48.782;9.252;2024-01-11T04:17:39;-2.60;46.50
439;DHT22;206;48.782;9.252;2024-01-11T04:20:06;-2.70;46.30
439;DHT22;206;48.782;9.252;2024-01-11T04:22:32;-2.70;47.00
439;DHT22;206;48.782;9.252;2024-01-11T04:24:58;-2.70;47.20
439;DHT22;206;48.782;9.252;2024-01-11T04:27:24;-2.70;47.10
439;DHT22;206;48.782;9.252;2024-01-11T04:29:49;-2.70;46.90
439;DHT22;206;48.782;9.252;2024-01-11T04:32:15;-2.70;47.20
439;DHT22;206;48.782;9.252;2024-01-11T04:34:40;-2.80;47.30
439;DHT22;206;48.782;9.252;2024-01-11T04:37:06;-2.80;47.90
439;DHT22;206;48.782;9.252;2024-01-11T04:39:32;-2.80;47.90
439;DHT22;206;48.782;9.252;2024-01-11T04:41:58;-2.80;47.60
439;DHT22;206;48.782;9.252;2024-01-11T04:44:24;-2.80;47.90
439;DHT22;206;48.782;9.252;2024-01-11T04:46:50;-2.70;48.00
439;DHT22;206;48.782;9.252;2024-01-11T04:49:15;-2.80;47.80
439;DHT22;206;48.782;9.252;2024-01-11T04:51:41;-2.80;47.70
439;DHT22;206;48.782;9.252;2024-01-11T04:54:06;-2.80;48.30
439;DHT22;206;48.782;9.252;2024-01-11T04:56:32;-2.80;48.30
439;DHT22;206;48.782;9.252;2024-01-11T04:58:57;-2.70;48.20
439;DHT22;206;48.782;9.252;2024-01-11T05:01:24;-2.70;48.10
439;DHT22;206;48.782;9.252;2024-01-11T05:03:49;-2.70;48.00
439;DHT22;206;48.782;9.252;2024-01-11T05:06:19;-2.70;47.30
439;DHT22;206;48.782;9.252;2024-01-11T05:08:46;-2.70;46.50
439;DHT22;206;48.782;9.252;2024-01-11T05:11:18;-2.70;45.80
439;DHT22;206;48.782;9.252;2024-01-11T05:13:44;-2.80;45.60
439;DHT22;206;48.782;9.252;2024-01-11T05:16:26;-2.70;45.90
439;DHT22;206;48.782;9.252;2024-01-11T05:18:53;-2.70;45.90
439;DHT22;206;48.782;9.252;2024-01-11T05:21:19;-2.70;46.30
439;DHT22;206;48.782;9.252;2024-01-11T05:23:45;-2.70;46.40
439;DHT22;206;48.782;9.252;2024-01-11T05:26:12;-2.70;46.30
439;DHT22;206;48.782;9.252;2024-01-11T05:28:38;-2.70;46.30
439;DHT22;206;48.782;9.252;2024-01-11T05:31:14;-2.70;46.70
439;DHT22;206;48.782;9.252;2024-01-11T05:33:41;-2.70;47.20
439;DHT22;206;48.782;9.252;2024-01-11T05:36:07;-2.70;48.20
439;DHT22;206;48.782;9.252;2024-01-11T05:38:34;-2.70;48.50
439;DHT22;206;48.782;9.252;2024-01-11T05:41:00;-2.70;48.50
439;DHT22;206;48.782;9.252;2024-01-11T05:43:26;-2.70;48.40
439;DHT22;206;48.782;9.252;2024-01-11T05:45:52;-2.70;48.00
439;DHT22;206;48.782;9.252;2024-01-11T05:48:18;-2.80;47.80
439;DHT22;206;48.782;9.252;2024-01-11T05:50:44;-2.80;48.50
439;DHT22;206;48.782;9.252;2024-01-11T05:53:10;-2.80;48.50
439;DHT22;206;48.782;9.252;2024-01-11T05:55:36;-2.80;48.50
439;DHT22;206;48.782;9.252;2024-01-11T05:58:03;-2.80;48.50
439;DHT22;206;48.782;9.252;2024-01-11T06:00:29;-2.80;48.40
439;DHT22;206;48.782;9.252;2024-01-11T06:02:55;-2.80;48.00
439;DHT22;206;48.782;9.252;2024-01-11T06:05:21;-2.80;48.50
439;DHT22;206;48.782;9.252;2024-01-11T06:07:47;-2.90;48.40
439;DHT22;206;48.782;9.252;2024-01-11T06:10:16;-3.00;49.00
439;DHT22;206;48.782;9.252;2024-01-11T06:12:42;-3.00;49.70
439;DHT22;206;48.782;9.252;2024-01-11T06:15:08;-3.00;50.00
439;DHT22;206;48.782;9.252;2024-01-11T06:17:35;-3.10;50.30
439;DHT22;206;48.782;9.252;2024-01-11T06:20:01;-3.10;51.00
439;DHT22;206;48.782;9.252;2024-01-11T06:22:27;-3.10;51.40
439;DHT22;206;48.782;9.252;2024-01-11T06:24:53;-3.00;51.80
439;DHT22;206;48.782;9.252;2024-01-11T06:27:18;-3.00;51.80
439;DHT22;206;48.782;9.252;2024-01-11T06:29:44;-2.90;51.00
439;DHT22;206;48.782;9.252;2024-01-11T06:32:09;-2.90;50.40
439;DHT22;206;48.782;9.252;2024-01-11T06:34:35;-2.90;50.30
439;DHT22;206;48.782;9.252;2024-01-11T06:37:02;-2.90;50.00
439;DHT22;206;48.782;9.252;2024-01-11T06:39:28;-2.90;49.60
439;DHT22;206;48.782;9.252;2024-01-11T06:41:55;-2.80;49.40
439;DHT22;206;48.782;9.252;2024-01-11T06:44:21;-2.90;49.30
439;DHT22;206;48.782;9.252;2024-01-11T06:46:46;-2.90;49.40
439;DHT22;206;48.782;9.252;2024-01-11T06:49:13;-2.90;49.60
439;DHT22;206;48.782;9.252;2024-01-11T06:51:39;-2.90;49.80
439;DHT22;206;48.782;9.252;2024-01-11T06:54:05;-2.90;49.10
439;DHT22;206;48.782;9.252;2024-01-11T06:56:32;-2.90;49.10
439;DHT22;206;48.782;9.252;2024-01-11T06:58:57;-2.90;48.00
439;DHT22;206;48.782;9.252;2024-01-11T07:01:23;-2.90;47.10
439;DHT22;206;48.782;9.252;2024-01-11T07:03:48;-3.00;46.90
439;DHT22;206;48.782;9.252;2024-01-11T07:06:15;-3.00;48.10
439;DHT22;206;48.782;9.252;2024-01-11T07:08:41;-2.90;48.40
439;DHT22;206;48.782;9.252;2024-01-11T07:11:06;-2.90;49.00
439;DHT22;206;48.782;9.252;2024-01-11T07:13:33;-2.90;49.40
439;DHT22;206;48.782;9.252;2024-01-11T07:15:59;-2.90;48.40
439;DHT22;206;48.782;9.252;2024-01-11T07:18:25;-2.80;48.50
439;DHT22;206;48.782;9.252;2024-01-11T07:20:52;-2.80;48.10
439;DHT22;206;48.782;9.252;2024-01-11T07:23:17;-2.80;47.30
439;DHT22;206;48.782;9.252;2024-01-11T07:25:43;-2.80;46.40
439;DHT22;206;48.782;9.252;2024-01-11T07:28:09;-2.80;46.30
439;DHT22;206;48.782;9.252;2024-01-11T07:30:34;-2.80;46.60
439;DHT22;206;48.782;9.252;2024-01-11T07:33:00;-2.80;47.20
439;DHT22;206;48.782;9.252;2024-01-11T07:35:26;-2.80;47.40
439;DHT22;206;48.782;9.252;2024-01-11T07:37:51;-2.80;47.50
439;DHT22;206;48.782;9.252;2024-01-11T07:40:17;-2.70;47.50
439;DHT22;206;48.782;9.252;2024-01-11T07:42:43;-2.70;48.50
439;DHT22;206;48.782;9.252;2024-01-11T07:45:09;-2.70;50.10
439;DHT22;206;48.782;9.252;2024-01-11T07:47:35;-2.70;50.20
439;DHT22;206;48.782;9.252;2024-01-11T07:50:05;-2.70;48.50
439;DHT22;206;48.782;9.252;2024-01-11T07:52:40;-2.70;46.50
439;DHT22;206;48.782;9.252;2024-01-11T07:55:09;-2.70;45.80
439;DHT22;206;48.782;9.252;2024-01-11T07:57:37;-2.70;45.70
439;DHT22;206;48.782;9.252;2024-01-11T08:00:04;-2.70;46.10
439;DHT22;206;48.782;9.252;2024-01-11T08:02:32;-2.60;46.60
439;DHT22;206;48.782;9.252;2024-01-11T08:04:57;-2.70;46.30
439;DHT22;206;48.782;9.252;2024-01-11T08:07:27;-2.60;47.90
439;DHT22;206;48.782;9.252;2024-01-11T08:09:53;-2.60;48.40
439;DHT22;206;48.782;9.252;2024-01-11T08:12:19;-2.50;47.90
439;DHT22;206;48.782;9.252;2024-01-11T08:14:44;-2.50;48.30
439;DHT22;206;48.782;9.252;2024-01-11T08:17:12;-2.40;48.70
439;DHT22;206;48.782;9.252;2024-01-11T08:19:39;-2.30;48.90
439;DHT22;206;48.782;9.252;2024-01-11T08:22:05;-2.20;48.00
439;DHT22;206;48.782;9.252;2024-01-11T08:24:31;-2.10;47.70
439;DHT22;206;48.782;9.252;2024-01-11T08:26:56;-2.00;45.30
439;DHT22;206;48.782;9.252;2024-01-11T08:29:23;-2.10;44.40
439;DHT22;206;48.782;9.252;2024-01-11T08:31:48;-2.00;44.80
439;DHT22;206;48.782;9.252;2024-01-11T08:34:14;-2.00;44.50
439;DHT22;206;48.782;9.252;2024-01-11T08:36:40;-2.00;44.40
439;DHT22;206;48.782;9.252;2024-01-11T08:39:06;-1.90;44.50
439;DHT22;206;48.782;9.252;2024-01-11T08:41:33;-1.90;44.50
439;DHT22;206;48.782;9.252;2024-01-11T08:44:00;-1.80;45.20
439;DHT22;206;48.782;9.252;2024-01-11T08:46:28;-1.70;44.70
439;DHT22;206;48.782;9.252;2024-01-11T08:48:56;-1.70;44.30
439;DHT22;206;48.782;9.252;2024-01-11T08:51:22;-1.60;44.40
439;DHT22;206;48.782;9.252;2024-01-11T08:53:48;-1.50;44.20
439;DHT22;206;48.782;9.252;2024-01-11T08:56:13;-1.40;44.00
439;DHT22;206;48.782;9.252;2024-01-11T08:58:41;-1.30;44.00
439;DHT22;206;48.782;9.252;2024-01-11T09:01:07;-1.20;43.70
439;DHT22;206;48.782;9.252;2024-01-11T09:03:34;-1.10;43.30
439;DHT22;206;48.782;9.252;2024-01-11T09:06:00;-1.00;41.90
439;DHT22;206;48.782;9.252;2024-01-11T09:08:26;-0.90;41.20
439;DHT22;206;48.782;9.252;2024-01-11T09:10:52;-0.90;40.60
439;DHT22;206;48.782;9.252;2024-01-11T09:13:18;-0.90;39.30
439;DHT22;206;48.782;9.252;2024-01-11T09:15:44;-1.00;40.30
439;DHT22;206;48.782;9.252;2024-01-11T09:18:09;-1.00;40.50
439;DHT22;206;48.782;9.252;2024-01-11T09:20:35;-1.00;40.50
439;DHT22;206;48.782;9.252;2024-01-11T09:23:01;-0.90;41.40
439;DHT22;206;48.782;9.252;2024-01-11T09:25:32;-0.90;40.60
439;DHT22;206;48.782;9.252;2024-01-11T09:27:59;-0.80;40.90
439;DHT22;206;48.782;9.252;2024-01-11T09:30:25;-0.70;41.30
439;DHT22;206;48.782;9.252;2024-01-11T09:32:51;-0.50;41.10
439;DHT22;206;48.782;9.252;2024-01-11T09:35:17;-0.50;39.10
439;DHT22;206;48.782;9.252;2024-01-11T09:37:43;-0.50;39.20
439;DHT22;206;48.782;9.252;2024-01-11T09:40:11;-0.50;39.50
439;DHT22;206;48.782;9.252;2024-01-11T09:42:38;-0.30;40.00
439;DHT22;206;48.782;9.252;2024-01-11T09:45:22;-0.20;39.90
439;DHT22;206;48.782;9.252;2024-01-11T09:47:49;-0.20;38.30
439;DHT22;206;48.782;9.252;2024-01-11T09:50:16;-0.20;38.50
439;DHT22;206;48.782;9.252;2024-01-11T09:52:50;-0.20;38.50
439;DHT22;206;48.782;9.252;2024-01-11T09:55:19;-0.10;39.00
439;DHT22;206;48.782;9.252;2024-01-11T09:57:46;0.00;38.60
439;DHT22;206;48.782;9.252;2024-01-11T10:00:22;0.20;38.00
439;DHT22;206;48.782;9.252;2024-01-11T10:02:49;0.30;37.20
439;DHT22;206;48.782;9.252;2024-01-11T10:05:16;0.40;36.80
439;DHT22;206;48.782;9.252;2024-01-11T10:07:42;0.50;36.60
439;DHT22;206;48.782;9.252;2024-01-11T10:10:08;0.60;35.40
439;DHT22;206;48.782;9.252;2024-01-11T10:12:35;0.60;34.30
439;DHT22;206;48.782;9.252;2024-01-11T10:15:08;0.50;34.80
439;DHT22;206;48.782;9.252;2024-01-11T10:17:41;0.60;34.80
439;DHT22;206;48.782;9.252;2024-01-11T10:20:10;0.60;35.30
439;DHT22;206;48.782;9.252;2024-01-11T10:22:36;0.80;35.30
439;DHT22;206;48.782;9.252;2024-01-11T10:25:13;0.90;34.60
439;DHT22;206;48.782;9.252;2024-01-11T10:27:42;1.00;32.40
439;DHT22;206;48.782;9.252;2024-01-11T10:30:09;1.00;32.40
439;DHT22;206;48.782;9.252;2024-01-11T10:32:35;1.10;31.90
439;DHT22;206;48.782;9.252;2024-01-11T10:35:01;1.10;31.90
439;DHT22;206;48.782;9.252;2024-01-11T10:37:31;1.20;31.10
439;DHT22;206;48.782;9.252;2024-01-11T10:40:04;1.20;31.30
439;DHT22;206;48.782;9.252;2024-01-11T10:42:35;1.10;30.50
439;DHT22;206;48.782;9.252;2024-01-11T10:45:03;1.20;30.60
439;DHT22;206;48.782;9.252;2024-01-11T10:47:32;1.20;31.30
439;DHT22;206;48.782;9.252;2024-01-11T10:50:00;1.30;30.60
439;DHT22;206;48.782;9.252;2024-01-11T10:52:31;1.30;30.80
439;DHT22;206;48.782;9.252;2024-01-11T10:54:59;1.30;30.30
439;DHT22;206;48.782;9.252;2024-01-11T10:57:26;1.30;31.20
439;DHT22;206;48.782;9.252;2024-01-11T10:59:53;1.40;31.60
439;DHT22;206;48.782;9.252;2024-01-11T11:02:20;1.50;31.70
439;DHT22;206;48.782;9.252;2024-01-11T11:04:48;1.60;31.50
439;DHT22;206;48.782;9.252;2024-01-11T11:07:16;1.80;30.80
439;DHT22;206;48.782;9.252;2024-01-11T11:09:45;1.80;28.60
439;DHT22;206;48.782;9.252;2024-01-11T11:12:11;1.70;28.50
439;DHT22;206;48.782;9.252;2024-01-11T11:14:38;1.80;28.60
439;DHT22;206;48.782;9.252;2024-01-11T11:17:04;1.90;28.80
439;DHT22;206;48.782;9.252;2024-01-11T11:19:30;1.90;28.60
439;DHT22;206;48.782;9.252;2024-01-11T11:21:56;1.90;28.40
439;DHT22;206;48.782;9.252;2024-01-11T11:24:22;1.90;28.20
439;DHT22;206;48.782;9.252;2024-01-11T11:26:47;1.90;28.70
439;DHT22;206;48.782;9.252;2024-01-11T11:29:15;2.00;28.90
439;DHT22;206;48.782;9.252;2024-01-11T11:31:45;2.00;28.70
439;DHT22;206;48.782;9.252;2024-01-11T11:34:13;2.00;28.70
439;DHT22;206;48.782;9.252;2024-01-11T11:36:42;2.10;28.80
439;DHT22;206;48.782;9.252;2024-01-11T11:39:11;2.10;28.80
439;DHT22;206;48.782;9.252;2024-01-11T11:41:37;2.10;28.80
439;DHT22;206;48.782;9.252;2024-01-11T11:44:04;2.20;28.10
439;DHT22;206;48.782;9.252;2024-01-11T11:46:31;2.30;28.50
439;DHT22;206;48.782;9.252;2024-01-11T11:48:57;2.30;27.90
439;DHT22;206;48.782;9.252;2024-01-11T11:51:24;2.30;28.30
439;DHT22;206;48.782;9.252;2024-01-11T11:53:51;2.30;28.70
439;DHT22;206;48.782;9.252;2024-01-11T11:56:21;2.40;28.70
439;DHT22;206;48.782;9.252;2024-01-11T11:58:47;2.50;28.20
439;DHT22;206;48.782;9.252;2024-01-11T12:01:15;2.50;27.10
439;DHT22;206;48.782;9.252;2024-01-11T12:03:43;2.50;27.20
439;DHT22;206;48.782;9.252;2024-01-11T12:06:14;2.60;26.80
439;DHT22;206;48.782;9.252;2024-01-11T12:08:42;2.50;27.00
439;DHT22;206;48.782;9.252;2024-01-11T12:11:08;2.60;27.10
439;DHT22;206;48.782;9.252;2024-01-11T12:13:33;2.70;26.80
439;DHT22;206;48.782;9.252;2024-01-11T12:16:00;2.70;26.80
439;DHT22;206;48.782;9.252;2024-01-11T12:18:25;2.70;26.40
439;DHT22;206;48.782;9.252;2024-01-11T12:20:51;2.70;26.60
439;DHT22;206;48.782;9.252;2024-01-11T12:23:18;2.80;26.80
439;DHT22;206;48.782;9.252;2024-01-11T12:25:44;2.80;26.60
439;DHT22;206;48.782;9.252;2024-01-11T12:28:10;2.90;26.70
439;DHT22;206;48.782;9.252;2024-01-11T12:30:36;3.00;26.60
439;DHT22;206;48.782;9.252;2024-01-11T12:33:03;3.00;26.20
439;DHT22;206;48.782;9.252;2024-01-11T12:35:30;3.10;26.60
439;DHT22;206;48.782;9.252;2024-01-11T12:38:05;3.10;25.50
439;DHT22;206;48.782;9.252;2024-01-11T12:40:35;3.00;25.40
439;DHT22;206;48.782;9.252;2024-01-11T12:43:02;3.00;25.60
439;DHT22;206;48.782;9.252;2024-01-11T12:45:28;2.90;26.00
439;DHT22;206;48.782;9.252;2024-01-11T12:47:55;2.90;26.10
439;DHT22;206;48.782;9.252;2024-01-11T12:50:23;2.80;26.10
439;DHT22;206;48.782;9.252;2024-01-11T12:53:09;2.80;26.20
439;DHT22;206;48.782;9.252;2024-01-11T12:55:37;2.70;26.50
439;DHT22;206;48.782;9.252;2024-01-11T12:58:09;2.70;27.30
439;DHT22;206;48.782;9.252;2024-01-11T13:00:38;2.80;27.30
439;DHT22;206;48.782;9.252;2024-01-11T13:03:04;2.90;27.10
439;DHT22;206;48.782;9.252;2024-01-11T13:05:30;3.00;27.00
439;DHT22;206;48.782;9.252;2024-01-11T13:08:07;3.10;27.00
439;DHT22;206;48.782;9.252;2024-01-11T13:10:33;3.00;26.60
439;DHT22;206;48.782;9.252;2024-01-11T13:12:59;3.00;27.00
439;DHT22;206;48.782;9.252;2024-01-11T13:15:25;2.90;27.00
439;DHT22;206;48.782;9.252;2024-01-11T13:17:51;2.80;26.90
439;DHT22;206;48.782;9.252;2024-01-11T13:20:16;2.70;27.20
439;DHT22;206;48.782;9.252;2024-01-11T13:22:43;2.40;28.10
439;DHT22;206;48.782;9.252;2024-01-11T13:25:08;2.30;28.50
439;DHT22;206;48.782;9.252;2024-01-11T13:27:34;2.30;28.90
439;DHT22;206;48.782;9.252;2024-01-11T13:30:00;2.40;29.00
439;DHT22;206;48.782;9.252;2024-01-11T13:32:26;2.40;28.60
439;DHT22;206;48.782;9.252;2024-01-11T13:34:52;2.40;28.40
439;DHT22;206;48.782;9.252;2024-01-11T13:37:19;2.30;28.70
439;DHT22;206;48.782;9.252;2024-01-11T13:39:45;2.40;28.40
439;DHT22;206;48.782;9.252;2024-01-11T13:42:10;2.50;29.00
439;DHT22;206;48.782;9.252;2024-01-11T13:44:38;2.70;29.00
439;DHT22;206;48.782;9.252;2024-01-11T13:47:03;3.10;28.10
439;DHT22;206;48.782;9.252;2024-01-11T13:49:29;3.30;26.90
439;DHT22;206;48.782;9.252;2024-01-11T13:51:55;3.60;26.40
439;DHT22;206;48.782;9.252;2024-01-11T13:54:20;3.80;25.80
439;DHT22;206;48.782;9.252;2024-01-11T13:56:47;3.90;25.10
439;DHT22;206;48.782;9.252;2024-01-11T13:59:13;3.80;25.10
439;DHT22;206;48.782;9.252;2024-01-11T14:01:39;3.80;25.60
439;DHT22;206;48.782;9.252;2024-01-11T14:04:05;3.70;25.20
439;DHT22;206;48.782;9.252;2024-01-11T14:06:31;3.50;25.80
439;DHT22;206;48.782;9.252;2024-01-11T14:08:57;3.50;26.30
439;DHT22;206;48.782;9.252;2024-01-11T14:11:23;3.40;26.30
439;DHT22;206;48.782;9.252;2024-01-11T14:13:48;3.40;26.40
439;DHT22;206;48.782;9.252;2024-01-11T14:16:14;3.40;26.50
439;DHT22;206;48.782;9.252;2024-01-11T14:18:41;3.20;26.60
439;DHT22;206;48.782;9.252;2024-01-11T14:21:07;3.20;26.90
439;DHT22;206;48.782;9.252;2024-01-11T14:23:35;3.10;27.00
439;DHT22;206;48.782;9.252;2024-01-11T14:26:01;3.10;27.40
439;DHT22;206;48.782;9.252;2024-01-11T14:28:30;2.90;27.20
439;DHT22;206;48.782;9.252;2024-01-11T14:30:55;2.90;27.30
439;DHT22;206;48.782;9.252;2024-01-11T14:33:21;2.90;27.10
439;DHT22;206;48.782;9.252;2024-01-11T14:35:46;2.80;27.20
439;DHT22;206;48.782;9.252;2024-01-11T14:38:12;2.80;27.50
439;DHT22;206;48.782;9.252;2024-01-11T14:40:38;2.70;27.50
439;DHT22;206;48.782;9.252;2024-01-11T14:43:03;2.70;27.90
439;DHT22;206;48.782;9.252;2024-01-11T14:45:30;2.70;27.70
439;DHT22;206;48.782;9.252;2024-01-11T14:47:55;2.60;27.90
439;DHT22;206;48.782;9.252;2024-01-11T14:50:21;2.50;28.40
439;DHT22;206;48.782;9.252;2024-01-11T14:52:47;2.50;28.20
439;DHT22;206;48.782;9.252;2024-01-11T14:55:13;2.50;28.40
439;DHT22;206;48.782;9.252;2024-01-11T14:57:39;2.50;28.40
439;DHT22;206;48.782;9.252;2024-01-11T15:00:05;2.50;28.10
439;DHT22;206;48.782;9.252;2024-01-11T15:02:36;2.60;28.10
439;DHT22;206;48.782;9.252;2024-01-11T15:05:03;2.40;28.30
439;DHT22;206;48.782;9.252;2024-01-11T15:07:29;2.40;28.50
439;DHT22;206;48.782;9.252;2024-01-11T15:09:55;2.40;28.70
439;DHT22;206;48.782;9.252;2024-01-11T15:12:20;2.40;29.00
439;DHT22;206;48.782;9.252;2024-01-11T15:14:47;2.40;29.00
439;DHT22;206;48.782;9.252;2024-01-11T15:17:19;2.40;29.00
439;DHT22;206;48.782;9.252;2024-01-11T15:19:45;2.30;28.90
439;DHT22;206;48.782;9.252;2024-01-11T15:22:12;2.30;28.90
439;DHT22;206;48.782;9.252;2024-01-11T15:24:40;2.30;28.90
439;DHT22;206;48.782;9.252;2024-01-11T15:27:06;2.20;29.00
439;DHT22;206;48.782;9.252;2024-01-11T15:29:32;2.20;29.40
439;DHT22;206;48.782;9.252;2024-01-11T15:31:58;2.20;29.30
439;DHT22;206;48.782;9.252;2024-01-11T15:34:24;2.20;29.60
439;DHT22;206;48.782;9.252;2024-01-11T15:36:50;2.10;29.70
439;DHT22;206;48.782;9.252;2024-01-11T15:39:15;2.10;29.60
439;DHT22;206;48.782;9.252;2024-01-11T15:41:41;2.00;29.70
439;DHT22;206;48.782;9.252;2024-01-11T15:44:07;2.00;30.10
439;DHT22;206;48.782;9.252;2024-01-11T15:46:33;2.00;30.00
439;DHT22;206;48.782;9.252;2024-01-11T15:48:59;1.90;29.80
439;DHT22;206;48.782;9.252;2024-01-11T15:51:24;1.90;30.10
439;DHT22;206;48.782;9.252;2024-01-11T15:53:50;1.90;30.00
439;DHT22;206;48.782;9.252;2024-01-11T15:56:16;1.80;30.20
439;DHT22;206;48.782;9.252;2024-01-11T15:58:41;1.80;30.40
439;DHT22;206;48.782;9.252;2024-01-11T16:01:08;1.70;30.70
439;DHT22;206;48.782;9.252;2024-01-11T16:03:34;1.70;30.80
439;DHT22;206;48.782;9.252;2024-01-11T16:05:59;1.60;31.00
439;DHT22;206;48.782;9.252;2024-01-11T16:08:25;1.60;30.90
439;DHT22;206;48.782;9.252;2024-01-11T16:10:50;1.60;31.40
439;DHT22;206;48.782;9.252;2024-01-11T16:13:16;1.60;31.40
439;DHT22;206;48.782;9.252;2024-01-11T16:15:42;1.50;32.40
439;DHT22;206;48.782;9.252;2024-01-11T16:18:08;1.40;32.70
439;DHT22;206;48.782;9.252;2024-01-11T16:20:33;1.30;33.00
439;DHT22;206;48.782;9.252;2024-01-11T16:22:59;1.30;33.40
439;DHT22;206;48.782;9.252;2024-01-11T16:25:24;1.30;33.30
439;DHT22;206;48.782;9.252;2024-01-11T16:27:50;1.30;33.60
439;DHT22;206;48.782;9.252;2024-01-11T16:30:16;1.20;33.50
439;DHT22;206;48.782;9.252;2024-01-11T16:32:41;1.20;33.60
439;DHT22;206;48.782;9.252;2024-01-11T16:35:07;1.20;33.80
439;DHT22;206;48.782;9.252;2024-01-11T16:37:33;1.10;33.70